Time;durP1;ratioP1;P1;durP2;ratioP2;P2;SDS_P1;SDS_P2;PMS_P1;PMS_P2;Temp;Humidity;BMP_temperature;BMP_pressure;BME280_temperature;BME280_humidity;BME280_pressure;Samples;Min_cycle;Max_cycle;Signal;HPM_P1;HPM_P2
2023/01/10 00:02:02;;;;;;;10.60;2.38;;;;;;;4.24;100.00;100854.47;4875890;29;20059;-86
2023/01/10 00:04:30;;;;;;;13.25;2.97;;;;;;;4.21;100.00;100859.59;4901653;29;20516;-86
2023/01/10 00:06:57;;;;;;;13.45;2.50;;;;;;;4.19;100.00;100864.75;4878630;29;20418;-86
2023/01/10 00:09:25;;;;;;;10.48;2.45;;;;;;;4.17;100.00;100869.03;4912043;29;20242;-86
2023/01/10 00:14:55;;;;;;;9.30;2.60;;;;;;;4.12;100.00;100886.31;4869292;29;20073;-86
2023/01/10 00:17:23;;;;;;;13.30;2.80;;;;;;;4.10;100.00;100888.84;4881346;29;20048;-85
2023/01/10 00:19:50;;;;;;;14.85;2.50;;;;;;;4.05;100.00;100885.22;4879560;29;20064;-87
2023/01/10 00:22:20;;;;;;;13.52;3.03;;;;;;;4.01;100.00;100892.91;4897196;29;20082;-87
2023/01/10 00:24:47;;;;;;;14.77;2.47;;;;;;;3.98;100.00;100903.25;4896946;29;20055;-86
2023/01/10 00:27:20;;;;;;;7.45;2.40;;;;;;;3.92;100.00;100903.06;4899968;29;20048;-86
2023/01/10 00:29:51;;;;;;;9.40;2.50;;;;;;;3.87;100.00;100910.72;4912965;29;20059;-86
2023/01/10 00:32:19;;;;;;;;;;;;;;;3.82;100.00;100909.69;4919203;29;20055;-86
2023/01/10 00:34:46;;;;;;;8.63;2.38;;;;;;;3.77;100.00;100919.97;4894981;29;19922;-85
2023/01/10 00:37:14;;;;;;;11.07;2.65;;;;;;;3.74;100.00;100919.00;4897525;29;20070;-86
2023/01/10 00:39:41;;;;;;;18.90;3.13;;;;;;;3.71;100.00;100927.59;4921176;29;20056;-86
2023/01/10 00:44:57;;;;;;;10.50;2.33;;;;;;;3.68;100.00;100941.41;4902497;29;20052;-86
2023/01/10 00:47:24;;;;;;;11.32;3.20;;;;;;;3.71;100.00;100941.50;4912581;29;20059;-85
2023/01/10 00:49:51;;;;;;;13.38;2.83;;;;;;;3.73;100.00;100949.38;4882976;29;20056;-86
2023/01/10 00:52:19;;;;;;;17.20;2.75;;;;;;;3.75;100.00;100946.84;4890085;29;20054;-86
2023/01/10 00:54:46;;;;;;;13.48;2.95;;;;;;;3.77;100.00;100951.25;4925794;29;20073;-86
2023/01/10 00:57:14;;;;;;;20.88;3.05;;;;;;;3.79;100.00;100953.91;4886601;29;20056;-86
2023/01/10 00:59:41;;;;;;;10.00;2.85;;;;;;;3.80;100.00;100959.19;4882881;29;20417;-85
2023/01/10 01:02:08;;;;;;;17.27;2.85;;;;;;;3.80;100.00;100959.19;4917354;29;20064;-86
2023/01/10 01:04:36;;;;;;;14.75;3.22;;;;;;;3.80;100.00;100968.69;4895510;29;20048;-86
2023/01/10 01:07:04;;;;;;;20.60;3.13;;;;;;;3.79;100.00;100965.22;4883372;29;20043;-86
2023/01/10 01:09:31;;;;;;;11.93;2.80;;;;;;;3.78;100.00;100963.47;4892890;29;20091;-86
2023/01/10 01:11:58;;;;;;;19.25;3.20;;;;;;;3.78;100.00;100963.47;4889155;29;20047;-86
2023/01/10 01:14:27;;;;;;;12.43;2.92;;;;;;;3.78;100.00;100968.69;4925007;29;20055;-85
2023/01/10 01:16:55;;;;;;;19.38;3.22;;;;;;;3.77;100.00;100984.25;4904639;29;20063;-86
2023/01/10 01:19:22;;;;;;;16.48;3.10;;;;;;;3.75;100.00;100984.22;4920768;29;20054;-86
2023/01/10 01:21:49;;;;;;;14.82;2.63;;;;;;;3.75;100.00;100986.81;4905059;29;20531;-86
2023/01/10 01:24:17;;;;;;;18.40;3.15;;;;;;;3.72;100.00;100994.53;4890601;29;20101;-86
2023/01/10 01:26:44;;;;;;;14.93;3.30;;;;;;;3.70;100.00;100996.19;4907092;29;20055;-87
2023/01/10 01:29:12;;;;;;;19.92;2.90;;;;;;;3.69;100.00;101002.25;4889949;29;20062;-85
2023/01/10 01:31:40;;;;;;;16.98;3.83;;;;;;;3.68;100.00;101008.28;4910185;29;20052;-86
2023/01/10 01:34:07;;;;;;;16.55;3.08;;;;;;;3.71;100.00;101021.44;4902444;29;20048;-85
2023/01/10 01:36:34;;;;;;;19.40;3.75;;;;;;;3.75;100.00;101025.03;4891897;29;20052;-86
2023/01/10 01:39:02;;;;;;;20.77;3.63;;;;;;;3.75;100.00;101025.91;4880754;29;20416;-85
2023/01/10 01:44:18;;;;;;;14.45;2.72;;;;;;;3.76;100.00;101029.41;4911459;29;20701;-86
2023/01/10 01:46:54;;;;;;;22.75;4.07;;;;;;;3.74;100.00;101037.16;4908094;29;20044;-87
2023/01/10 01:49:23;;;;;;;15.25;3.95;;;;;;;3.73;100.00;101044.94;4919526;29;20066;-86
2023/01/10 01:52:01;;;;;;;16.88;3.90;;;;;;;3.70;100.00;101051.84;4919357;29;20056;-87
2023/01/10 01:54:30;;;;;;;19.02;3.60;;;;;;;3.67;100.00;101045.63;4898140;29;20046;-87
2023/01/10 01:57:10;;;;;;;18.77;3.05;;;;;;;3.65;100.00;101049.91;4883065;29;20186;-88
2023/01/10 01:59:42;;;;;;;16.13;3.08;;;;;;;3.62;100.00;101052.38;4925448;29;20051;-87
2023/01/10 02:02:32;;;;;;;22.30;3.58;;;;;;;3.58;100.00;101053.13;4922985;29;20067;-87
2023/01/10 02:05:03;;;;;;;23.33;3.75;;;;;;;3.56;100.00;101060.00;4891519;29;20051;-87
2023/01/10 02:07:36;;;;;;;16.13;2.80;;;;;;;3.52;100.00;101064.22;4900285;29;20062;-86
2023/01/10 02:10:12;;;;;;;19.20;3.22;;;;;;;3.50;100.00;101061.56;4882795;29;20062;-86
2023/01/10 02:12:40;;;;;;;18.30;3.65;;;;;;;3.50;100.00;101071.97;4938383;29;20564;-86
2023/01/10 02:15:09;;;;;;;16.10;2.95;;;;;;;3.49;100.00;101072.78;4915669;29;20063;-86
2023/01/10 02:17:39;;;;;;;19.55;3.45;;;;;;;3.52;100.00;101087.66;4865458;29;20052;-87
2023/01/10 02:20:11;;;;;;;14.35;3.78;;;;;;;3.58;100.00;101097.41;4873719;29;20067;-86
2023/01/10 02:23:01;;;;;;;20.63;3.97;;;;;;;3.67;100.00;101074.28;4902330;29;20060;-86
2023/01/10 02:25:47;;;;;;;20.95;3.03;;;;;;;3.76;100.00;101068.50;4889303;29;20037;-86
2023/01/10 02:28:42;;;;;;;23.17;4.78;;;;;;;3.82;100.00;101072.22;4896321;29;20044;-87
2023/01/10 02:31:19;;;;;;;23.35;3.90;;;;;;;3.89;100.00;101073.28;4902039;29;20049;-87
2023/01/10 02:33:57;;;;;;;18.13;3.67;;;;;;;3.92;100.00;101067.31;4901041;29;20062;-86
2023/01/10 02:36:59;;;;;;;19.58;4.72;;;;;;;3.93;100.00;101074.28;4898019;29;20044;-87
2023/01/10 02:39:48;;;;;;;17.90;3.97;;;;;;;3.93;100.00;101079.50;4898683;29;20048;-87
2023/01/10 02:42:28;;;;;;;14.40;3.45;;;;;;;3.90;100.00;101077.69;4877043;29;20493;-87
2023/01/10 02:45:34;;;;;;;24.55;3.65;;;;;;;3.88;100.00;101085.44;4909284;29;20407;-86
2023/01/10 02:48:02;;;;;;;23.10;3.90;;;;;;;3.86;100.00;101079.28;4904164;29;20066;-86
2023/01/10 02:50:29;;;;;;;23.55;4.47;;;;;;;3.84;100.00;101078.38;4891384;29;20055;-86
2023/01/10 02:53:00;;;;;;;25.17;3.13;;;;;;;3.84;100.00;101083.56;4912515;29;20059;-86
2023/01/10 02:55:40;;;;;;;;;;;;;;;3.82;100.00;101084.34;4879766;29;20048;-86
2023/01/10 02:58:30;;;;;;;16.10;3.10;;;;;;;3.79;100.00;101085.13;4893858;29;20393;-87
2023/01/10 03:01:06;;;;;;;19.70;3.72;;;;;;;3.77;100.00;101089.41;4910006;29;20048;-86
2023/01/10 03:04:15;;;;;;;25.23;3.85;;;;;;;3.76;100.00;101087.63;4899706;29;20066;-86
2023/01/10 03:06:58;;;;;;;18.67;3.80;;;;;;;3.77;100.00;101091.13;4900937;29;20728;-86
2023/01/10 03:09:38;;;;;;;16.80;3.38;;;;;;;3.80;100.00;101105.16;4906535;29;20052;-86
2023/01/10 03:12:18;;;;;;;20.30;2.70;;;;;;;3.81;100.00;101103.44;4880101;29;20055;-86
2023/01/10 03:14:47;;;;;;;20.13;3.55;;;;;;;3.81;100.00;101106.91;4891303;29;20068;-86
2023/01/10 03:17:18;;;;;;;17.77;3.80;;;;;;;3.80;100.00;101102.56;4873165;29;20059;-86
2023/01/10 03:19:50;;;;;;;23.17;3.55;;;;;;;3.80;100.00;101110.38;4893397;29;20052;-85
2023/01/10 03:22:17;;;;;;;25.42;4.60;;;;;;;3.78;100.00;101112.06;4900170;29;20072;-86
2023/01/10 03:24:48;;;;;;;16.10;3.28;;;;;;;3.79;100.00;101111.19;4911477;29;20052;-85
2023/01/10 03:27:36;;;;;;;20.58;3.58;;;;;;;3.82;100.00;101119.13;4862608;29;20044;-86
2023/01/10 03:30:27;;;;;;;13.20;2.60;;;;;;;3.86;100.00;101131.44;4906499;29;20052;-86
2023/01/10 03:32:56;;;;;;;17.35;3.15;;;;;;;3.94;100.00;101139.53;4901786;29;20059;-86
2023/01/10 03:35:50;;;;;;;15.10;3.05;;;;;;;4.01;100.00;101133.69;4876274;29;20995;-86
2023/01/10 03:38:31;;;;;;;24.80;4.97;;;;;;;4.11;100.00;101132.28;4866985;29;20048;-86
2023/01/10 03:41:03;;;;;;;27.27;4.00;;;;;;;4.19;100.00;101138.63;4890881;29;20060;-87
2023/01/10 03:46:34;;;;;;;20.65;3.58;;;;;;;4.29;100.00;101130.31;4916767;29;20044;-86
2023/01/10 03:49:04;;;;;;;17.25;3.70;;;;;;;4.31;100.00;101135.56;4901838;29;20406;-86
2023/01/10 03:51:32;;;;;;;24.67;3.37;;;;;;;4.34;100.00;101153.03;4885504;29;20068;-86
2023/01/10 03:54:01;;;;;;;12.57;3.28;;;;;;;4.33;100.00;101151.25;4900885;29;20311;-86
2023/01/10 03:56:30;;;;;;;22.77;3.45;;;;;;;4.29;100.00;101152.88;4885045;29;20040;-87
2023/01/10 03:58:57;;;;;;;19.08;3.42;;;;;;;4.26;100.00;101160.63;4878873;29;20055;-87
2023/01/10 04:01:26;;;;;;;21.95;3.38;;;;;;;4.23;100.00;101165.72;4900112;29;20036;-87
2023/01/10 04:03:53;;;;;;;19.42;4.18;;;;;;;4.19;100.00;101172.53;4884431;29;20421;-87
2023/01/10 04:06:21;;;;;;;16.17;3.65;;;;;;;4.15;100.00;101170.66;4910156;29;20047;-86
2023/01/10 04:08:48;;;;;;;23.50;3.95;;;;;;;4.15;100.00;101169.78;4884425;29;20512;-86
2023/01/10 04:11:15;;;;;;;16.75;2.83;;;;;;;4.11;100.00;101171.41;4897840;29;20056;-86
2023/01/10 04:13:43;;;;;;;12.50;4.13;;;;;;;4.11;100.00;101174.00;4851529;29;20052;-86
2023/01/10 04:16:10;;;;;;;17.23;2.70;;;;;;;4.10;100.00;101177.44;4916832;29;20048;-87
2023/01/10 04:18:38;;;;;;;23.98;3.92;;;;;;;4.09;100.00;101186.13;4919694;29;20055;-86
2023/01/10 04:21:08;;;;;;;16.45;2.90;;;;;;;4.10;100.00;101177.44;4886549;29;20063;-88
2023/01/10 04:23:35;;;;;;;14.68;3.25;;;;;;;4.10;100.00;101172.22;4882021;29;20044;-86
2023/01/10 04:26:06;;;;;;;16.48;4.05;;;;;;;4.12;100.00;101180.09;4901473;29;20070;-86
2023/01/10 04:28:33;;;;;;;15.43;3.70;;;;;;;4.12;100.00;101186.25;4887505;29;20052;-87
2023/01/10 04:31:00;;;;;;;24.60;3.33;;;;;;;4.14;100.00;101183.66;4893402;29;20502;-87
2023/01/10 04:33:28;;;;;;;13.20;3.40;;;;;;;4.15;100.00;101196.75;4899232;29;20413;-87
2023/01/10 04:35:57;;;;;;;18.65;2.85;;;;;;;4.16;100.00;101192.41;4899497;29;20063;-85
2023/01/10 04:38:24;;;;;;;19.58;3.83;;;;;;;4.15;100.00;101201.97;4898654;29;20048;-86
2023/01/10 04:40:53;;;;;;;18.15;2.97;;;;;;;4.14;100.00;101208.03;4901809;29;20048;-86
2023/01/10 04:43:22;;;;;;;22.10;3.95;;;;;;;4.15;100.00;101212.41;4912920;29;20051;-85
2023/01/10 04:45:49;;;;;;;17.80;3.92;;;;;;;4.16;100.00;101210.69;4858020;29;20064;-85
2023/01/10 04:48:17;;;;;;;15.73;3.28;;;;;;;4.18;100.00;101203.78;4901231;29;20052;-85
2023/01/10 04:50:51;;;;;;;17.67;3.80;;;;;;;4.20;100.00;101226.50;4916721;29;20056;-86
2023/01/10 04:53:19;;;;;;;29.55;7.60;;;;;;;4.19;100.00;101216.88;4898335;29;20059;-86
2023/01/10 04:55:47;;;;;;;26.27;5.15;;;;;;;4.18;100.00;101227.25;4913781;29;20040;-85
2023/01/10 04:58:14;;;;;;;19.42;5.18;;;;;;;4.16;100.00;101227.25;4907197;29;20043;-85
2023/01/10 05:00:43;;;;;;;22.05;4.15;;;;;;;4.14;100.00;101233.22;4918408;29;20436;-86
2023/01/10 05:03:20;;;;;;;13.98;4.05;;;;;;;4.11;100.00;101244.44;4881448;29;20059;-87
2023/01/10 05:05:47;;;;;;;24.30;4.20;;;;;;;4.08;100.00;101242.63;4879946;29;20064;-85
2023/01/10 05:08:14;;;;;;;26.15;4.03;;;;;;;4.08;100.00;101249.53;4902817;29;20047;-85
2023/01/10 05:10:42;;;;;;;22.25;4.10;;;;;;;4.07;100.00;101247.78;4888847;29;20051;-85
2023/01/10 05:13:10;;;;;;;17.42;3.67;;;;;;;4.08;100.00;101257.34;4886353;29;20040;-85
2023/01/10 05:15:37;;;;;;;19.13;3.80;;;;;;;4.10;100.00;101255.69;4889606;29;20048;-86
2023/01/10 05:18:04;;;;;;;23.88;3.58;;;;;;;4.12;100.00;101261.88;4885197;29;20060;-84
2023/01/10 05:20:32;;;;;;;13.43;3.60;;;;;;;4.15;100.00;101256.75;4893309;29;20052;-85
2023/01/10 05:23:00;;;;;;;15.07;3.47;;;;;;;4.19;100.00;101263.84;4890643;29;20055;-85
2023/01/10 05:25:28;;;;;;;12.50;3.03;;;;;;;4.21;100.00;101270.00;4916333;29;20044;-87
2023/01/10 05:27:57;;;;;;;21.80;4.40;;;;;;;4.23;100.00;101270.94;4904077;29;20055;-87
2023/01/10 05:30:24;;;;;;;28.80;4.55;;;;;;;4.25;100.00;101287.56;4896526;29;20083;-86
2023/01/10 05:32:52;;;;;;;23.48;4.15;;;;;;;4.24;100.00;101275.34;4882758;29;20059;-86
2023/01/10 05:35:19;;;;;;;19.17;5.00;;;;;;;4.26;100.00;101284.09;4917445;29;20055;-85
2023/01/10 05:37:46;;;;;;;21.73;4.53;;;;;;;4.26;100.00;101283.22;4892720;29;20425;-86
2023/01/10 05:40:14;;;;;;;18.08;3.45;;;;;;;4.25;100.00;101278.81;4890711;29;20421;-85
2023/01/10 05:42:41;;;;;;;23.95;4.05;;;;;;;4.24;100.00;101274.47;4892915;29;20762;-85
2023/01/10 05:45:09;;;;;;;19.55;4.25;;;;;;;4.21;100.00;101282.16;4894412;29;20052;-85
2023/01/10 05:47:36;;;;;;;16.50;4.18;;;;;;;4.19;100.00;101282.09;4889099;29;20505;-85
2023/01/10 05:50:04;;;;;;;23.33;5.50;;;;;;;4.19;100.00;101279.50;4892485;29;20063;-86
2023/01/10 05:52:31;;;;;;;17.45;3.88;;;;;;;4.18;100.00;101282.97;4931906;29;20051;-85
2023/01/10 05:55:00;;;;;;;16.38;3.60;;;;;;;4.17;100.00;101291.59;4891228;29;20056;-85
2023/01/10 05:57:28;;;;;;;15.90;4.45;;;;;;;4.17;100.00;101290.72;4899940;29;20499;-85
2023/01/10 05:59:55;;;;;;;22.17;3.88;;;;;;;4.16;100.00;101300.28;4880848;29;20744;-84
2023/01/10 06:02:25;;;;;;;16.27;3.58;;;;;;;4.15;100.00;101303.69;4873954;29;20063;-87
2023/01/10 06:04:54;;;;;;;13.65;3.53;;;;;;;4.15;100.00;101311.53;4881139;29;20056;-86
2023/01/10 06:07:22;;;;;;;15.85;3.70;;;;;;;4.17;100.00;101304.63;4906635;29;20055;-86
2023/01/10 06:09:51;;;;;;;18.15;3.53;;;;;;;4.21;100.00;101319.56;4909609;29;20056;-87
2023/01/10 06:12:18;;;;;;;18.98;4.05;;;;;;;4.24;100.00;101316.19;4910942;29;20047;-86
2023/01/10 06:14:45;;;;;;;19.85;4.10;;;;;;;4.26;100.00;101304.97;4897815;29;20052;-87
2023/01/10 06:17:13;;;;;;;14.98;3.30;;;;;;;4.29;100.00;101312.94;4900246;29;20050;-86
2023/01/10 06:19:40;;;;;;;16.83;3.35;;;;;;;4.35;100.00;101311.34;4870170;29;20505;-86
2023/01/10 06:22:07;;;;;;;20.60;3.67;;;;;;;4.38;100.00;101316.69;4894677;29;20064;-86
2023/01/10 06:24:35;;;;;;;14.35;3.03;;;;;;;4.42;100.00;101315.97;4893437;29;20075;-86
2023/01/10 06:27:02;;;;;;;11.80;2.85;;;;;;;4.44;100.00;101315.22;4886294;29;20063;-86
2023/01/10 06:29:30;;;;;;;17.45;3.22;;;;;;;4.49;100.00;101329.28;4903221;29;20051;-86
2023/01/10 06:31:57;;;;;;;17.80;3.38;;;;;;;4.52;100.00;101319.78;4886930;29;20420;-85
2023/01/10 06:34:25;;;;;;;22.17;5.03;;;;;;;4.54;100.00;101321.63;4894590;29;20575;-85
2023/01/10 06:36:52;;;;;;;14.93;3.80;;;;;;;4.55;100.00;101331.22;4869043;29;20048;-86
2023/01/10 06:39:20;;;;;;;18.42;4.07;;;;;;;4.56;100.00;101335.63;4891840;29;20055;-86
2023/01/10 06:41:47;;;;;;;14.48;5.07;;;;;;;4.56;100.00;101346.06;4912818;29;20047;-86
2023/01/10 06:44:15;;;;;;;17.35;4.97;;;;;;;4.56;100.00;101351.28;4887323;29;20051;-85
2023/01/10 06:46:44;;;;;;;18.10;3.78;;;;;;;4.57;100.00;101346.94;4875823;29;20517;-87
2023/01/10 06:49:12;;;;;;;31.30;5.07;;;;;;;4.59;100.00;101335.72;4895440;29;20047;-84
2023/01/10 06:51:39;;;;;;;15.65;4.30;;;;;;;4.59;100.00;101334.84;4874640;29;20059;-84
2023/01/10 06:54:07;;;;;;;13.07;4.18;;;;;;;4.57;100.00;101346.94;4906178;29;20056;-85
2023/01/10 06:56:34;;;;;;;20.02;5.55;;;;;;;4.54;100.00;101355.56;4895666;29;20066;-84
2023/01/10 06:59:01;;;;;;;20.40;5.13;;;;;;;4.50;100.00;101343.25;4898986;29;20410;-84
2023/01/10 07:01:29;;;;;;;16.77;4.70;;;;;;;4.45;100.00;101342.19;4897909;29;20055;-83
2023/01/10 07:03:56;;;;;;;22.08;5.28;;;;;;;4.41;100.00;101330.75;4916732;29;20055;-84
2023/01/10 07:06:24;;;;;;;19.90;4.85;;;;;;;4.38;100.00;101334.97;4866006;29;21912;-83
2023/01/10 07:08:54;;;;;;;15.52;4.18;;;;;;;4.32;100.00;101327.78;4894937;29;20052;-84
2023/01/10 07:11:21;;;;;;;18.03;3.87;;;;;;;4.28;100.00;101342.44;4875400;29;20044;-84
2023/01/10 07:13:52;;;;;;;13.60;3.95;;;;;;;4.24;100.00;101345.78;4889127;29;20071;-84
2023/01/10 07:16:20;;;;;;;13.40;4.30;;;;;;;4.20;100.00;101350.84;4909171;29;20505;-84
2023/01/10 07:18:47;;;;;;;16.38;4.32;;;;;;;4.16;100.00;101357.66;4880469;29;20044;-82
2023/01/10 07:21:16;;;;;;;19.50;4.80;;;;;;;4.11;100.00;101361.81;4886732;29;20056;-83
2023/01/10 07:23:50;;;;;;;15.45;4.53;;;;;;;4.07;100.00;101360.78;4882664;29;20052;-84
2023/01/10 07:26:18;;;;;;;19.05;6.15;;;;;;;4.05;100.00;101380.72;4881653;29;20863;-84
2023/01/10 07:28:49;;;;;;;15.13;5.55;;;;;;;4.04;100.00;101410.22;4891331;29;20056;-84
2023/01/10 07:31:19;;;;;;;31.20;9.73;;;;;;;4.05;100.00;101422.44;4925130;29;20477;-85
2023/01/10 07:33:46;;;;;;;23.13;8.52;;;;;;;4.07;100.00;101423.41;4916942;29;20059;-84
2023/01/10 07:36:14;;;;;;;21.92;8.35;;;;;;;4.07;100.00;101426.00;4901085;29;20055;-83
2023/01/10 07:38:41;;;;;;;23.50;7.15;;;;;;;4.08;100.00;101432.09;4891731;29;20063;-85
2023/01/10 07:41:09;;;;;;;26.23;6.63;;;;;;;4.08;100.00;101433.00;4884409;29;20575;-87
2023/01/10 07:43:37;;;;;;;17.77;7.35;;;;;;;4.08;100.00;101434.72;4907303;29;20047;-86
2023/01/10 07:46:10;;;;;;;24.63;7.57;;;;;;;4.07;100.00;101427.72;4883838;29;20059;-83
2023/01/10 07:48:40;;;;;;;12.98;6.30;;;;;;;4.06;100.00;101429.47;4925248;29;20068;-84
2023/01/10 07:51:08;;;;;;;17.33;6.72;;;;;;;4.08;100.00;101432.09;4897645;29;20051;-84
2023/01/10 07:53:37;;;;;;;19.77;5.38;;;;;;;4.10;100.00;101440.88;4898377;29;20063;-85
2023/01/10 07:56:04;;;;;;;11.60;5.20;;;;;;;4.14;100.00;101434.97;4909988;29;20054;-84
2023/01/10 07:58:32;;;;;;;16.92;5.05;;;;;;;4.17;100.00;101450.72;4912421;29;20040;-85
2023/01/10 08:01:03;;;;;;;14.55;4.60;;;;;;;4.17;100.00;101455.94;4902805;29;20051;-85
2023/01/10 08:03:32;;;;;;;23.42;6.47;;;;;;;4.19;100.00;101461.22;4915269;29;20075;-83
2023/01/10 08:06:02;;;;;;;24.33;6.90;;;;;;;4.21;100.00;101452.63;4918518;29;20052;-84
2023/01/10 08:08:30;;;;;;;17.52;5.65;;;;;;;4.25;100.00;101458.84;4909533;29;20059;-85
2023/01/10 08:11:03;;;;;;;23.00;6.38;;;;;;;4.24;100.00;101465.78;4875158;29;20059;-82
2023/01/10 08:13:31;;;;;;;22.65;7.50;;;;;;;4.26;100.00;101455.41;4898698;29;20039;-80
2023/01/10 08:16:04;;;;;;;19.25;5.03;;;;;;;4.25;100.00;101456.22;4903219;29;20051;-80
2023/01/10 08:18:32;;;;;;;24.23;4.55;;;;;;;4.26;100.00;101450.19;4920334;29;20047;-79
2023/01/10 08:20:59;;;;;;;17.17;5.35;;;;;;;4.26;100.00;101450.19;4904778;29;20443;-79
2023/01/10 08:23:27;;;;;;;22.70;6.80;;;;;;;4.27;100.00;101444.13;4917737;29;20052;-81
2023/01/10 08:25:57;;;;;;;21.42;7.07;;;;;;;4.28;100.00;101444.19;4861207;29;20070;-80
2023/01/10 08:28:26;;;;;;;23.65;6.30;;;;;;;4.31;100.00;101448.66;4902513;29;20501;-80
2023/01/10 08:30:54;;;;;;;28.40;7.00;;;;;;;4.34;100.00;101471.38;4895015;29;20048;-79
2023/01/10 08:33:24;;;;;;;21.45;8.00;;;;;;;4.38;100.00;101468.03;4903916;29;20056;-81
2023/01/10 08:35:51;;;;;;;23.05;5.63;;;;;;;4.42;100.00;101470.84;4921879;29;20062;-80
2023/01/10 08:38:18;;;;;;;28.95;6.85;;;;;;;4.45;100.00;101472.66;4901526;29;20063;-82
2023/01/10 08:40:46;;;;;;;24.58;5.60;;;;;;;4.51;100.00;101480.72;4886201;29;20145;-83
2023/01/10 08:43:14;;;;;;;24.23;6.55;;;;;;;4.54;100.00;101480.84;4892140;29;20415;-82
2023/01/10 08:45:41;;;;;;;21.25;6.30;;;;;;;4.58;100.00;101485.34;4901910;29;20059;-83
2023/01/10 08:48:09;;;;;;;26.73;6.88;;;;;;;4.61;100.00;101485.47;4914262;29;20056;-84
2023/01/10 08:50:36;;;;;;;29.83;6.55;;;;;;;4.64;100.00;101492.53;4916481;29;20520;-81
2023/01/10 08:53:04;;;;;;;25.63;5.95;;;;;;;4.68;100.00;101491.81;4907379;29;20066;-82
2023/01/10 08:55:34;;;;;;;38.50;6.28;;;;;;;4.74;100.00;101493.75;4895213;29;20067;-84
2023/01/10 08:58:01;;;;;;;25.60;5.50;;;;;;;4.80;100.00;101501.81;4876497;29;20060;-84
2023/01/10 09:00:30;;;;;;;30.48;6.13;;;;;;;4.83;100.00;101496.72;4892085;29;20241;-83
2023/01/10 09:02:57;;;;;;;32.35;5.55;;;;;;;4.86;100.00;101496.84;4875300;29;20059;-85
2023/01/10 09:05:25;;;;;;;25.60;5.65;;;;;;;4.87;100.00;101511.66;4901977;29;20047;-84
2023/01/10 09:08:00;;;;;;;30.20;5.80;;;;;;;4.90;100.00;101506.56;4891173;29;20059;-84
2023/01/10 09:10:28;;;;;;;29.55;5.68;;;;;;;4.91;100.00;101513.53;4920417;29;20056;-82
2023/01/10 09:13:00;;;;;;;30.55;6.63;;;;;;;4.93;100.00;101511.88;4877445;29;20059;-83
2023/01/10 09:15:31;;;;;;;20.73;5.90;;;;;;;4.93;100.00;101506.66;4892713;29;20047;-82
2023/01/10 09:18:01;;;;;;;29.38;6.30;;;;;;;4.97;100.00;101503.34;4878193;29;20052;-84
2023/01/10 09:20:33;;;;;;;30.98;6.00;;;;;;;5.01;100.00;101515.66;4891876;29;20643;-83
2023/01/10 09:23:09;;;;;;;25.80;5.55;;;;;;;5.05;100.00;101514.94;4872701;29;20052;-84
2023/01/10 09:25:37;;;;;;;29.50;6.13;;;;;;;5.08;100.00;101512.47;4911259;29;20063;-87
2023/01/10 09:28:05;;;;;;;28.13;5.22;;;;;;;5.13;100.00;101509.13;4880479;29;20063;-83
2023/01/10 09:30:32;;;;;;;26.38;5.60;;;;;;;5.13;100.00;101515.22;4903254;29;20081;-84
2023/01/10 09:33:00;;;;;;;29.10;6.07;;;;;;;5.15;100.00;101524.00;4893693;29;20791;-83
2023/01/10 09:35:29;;;;;;;33.70;7.63;;;;;;;5.20;100.00;101522.44;4910964;29;20047;-83
2023/01/10 09:38:01;;;;;;;30.90;5.28;;;;;;;5.24;100.00;101518.22;4922939;29;20052;-86
2023/01/10 09:40:38;;;;;;;34.35;5.80;;;;;;;5.30;100.00;101523.66;4890986;29;20039;-80
2023/01/10 09:43:20;;;;;;;24.58;5.18;;;;;;;5.34;100.00;101517.69;4870867;29;20087;-82
2023/01/10 09:46:04;;;;;;;31.77;6.00;;;;;;;5.38;100.00;101527.44;4922690;29;20071;-82
2023/01/10 09:48:50;;;;;;;22.92;4.70;;;;;;;5.43;100.00;101523.25;4928101;29;20048;-81
2023/01/10 09:51:26;;;;;;;20.98;4.75;;;;;;;5.45;100.00;101524.19;4907174;29;20493;-82
2023/01/10 09:53:58;;;;;;;35.05;5.40;;;;;;;5.49;100.00;101519.97;4923420;29;20056;-85
2023/01/10 09:56:40;;;;;;;23.95;4.43;;;;;;;5.52;100.00;101525.31;4908114;29;20055;-84
2023/01/10 09:59:29;;;;;;;21.88;6.45;;;;;;;5.55;100.00;101527.13;4908962;29;20040;-82
2023/01/10 10:02:04;;;;;;;22.50;5.00;;;;;;;5.56;100.00;101526.31;4907710;29;20052;-82
2023/01/10 10:04:35;;;;;;;34.85;6.20;;;;;;;5.57;100.00;101533.31;4919480;29;20048;-83
2023/01/10 10:07:11;;;;;;;27.27;8.18;;;;;;;5.58;100.00;101535.09;4913353;29;20056;-82
2023/01/10 10:09:41;;;;;;;27.58;6.03;;;;;;;5.58;100.00;101541.19;4932140;29;20062;-84
2023/01/10 10:12:35;;;;;;;24.98;5.30;;;;;;;5.59;100.00;101550.81;4890218;29;20066;-83
2023/01/10 10:15:25;;;;;;;26.25;6.05;;;;;;;5.59;100.00;101547.31;4905693;29;20047;-82
2023/01/10 10:18:01;;;;;;;22.73;6.05;;;;;;;5.60;100.00;101544.75;4912856;29;20059;-83
2023/01/10 10:20:55;;;;;;;23.77;4.97;;;;;;;5.63;100.00;101542.25;4916592;29;20063;-83
2023/01/10 10:23:47;;;;;;;19.15;4.28;;;;;;;5.65;100.00;101545.81;4918524;29;20471;-83
2023/01/10 10:26:33;;;;;;;22.75;4.80;;;;;;;5.70;100.00;101532.88;4915463;29;20059;-82
2023/01/10 10:29:09;;;;;;;21.77;5.60;;;;;;;5.74;100.00;101531.25;4902185;29;20079;-83
2023/01/10 10:32:15;;;;;;;25.67;5.60;;;;;;;5.79;100.00;101522.75;4900458;29;20059;-82
2023/01/10 10:34:49;;;;;;;27.58;6.47;;;;;;;5.84;100.00;101530.72;4911330;29;20058;-82
2023/01/10 10:37:42;;;;;;;24.25;5.97;;;;;;;5.89;100.00;101521.31;4912265;29;20051;-82
2023/01/10 10:40:13;;;;;;;17.45;4.85;;;;;;;5.90;100.00;101517.88;4910966;29;20051;-82
2023/01/10 10:42:46;;;;;;;28.27;7.90;;;;;;;5.93;100.00;101501.38;4899103;29;20791;-83
2023/01/10 10:45:21;;;;;;;23.30;7.45;;;;;;;5.93;100.00;101507.50;4911281;29;20047;-83
2023/01/10 10:47:59;;;;;;;18.67;6.15;;;;;;;5.95;100.00;101508.47;4896477;29;20067;-83
2023/01/10 10:50:34;;;;;;;26.15;5.75;;;;;;;5.98;100.00;101510.31;4905246;29;20044;-83
2023/01/10 10:53:03;;;;;;;22.40;4.75;;;;;;;5.98;100.00;101503.34;4896161;29;20085;-82
2023/01/10 10:55:37;;;;;;;19.90;5.07;;;;;;;5.99;100.00;101514.69;4919374;29;20055;-83
2023/01/10 10:58:06;;;;;;;24.10;4.78;;;;;;;6.00;100.00;101511.25;4920875;29;20055;-83
2023/01/10 11:00:33;;;;;;;23.73;5.53;;;;;;;6.00;100.00;101503.41;4848121;29;20063;-81
2023/01/10 11:03:23;;;;;;;22.27;4.40;;;;;;;6.03;100.00;101506.09;4875745;29;20057;-83
2023/01/10 11:05:51;;;;;;;31.10;5.57;;;;;;;6.04;100.00;101505.25;4913534;29;20535;-82
2023/01/10 11:08:20;;;;;;;24.27;5.40;;;;;;;6.05;100.00;101497.47;4885631;29;20063;-82
2023/01/10 11:10:52;;;;;;;21.80;5.15;;;;;;;6.05;100.00;101501.81;4923553;29;20043;-81
2023/01/10 11:13:32;;;;;;;16.25;4.50;;;;;;;6.08;100.00;101506.25;4915801;29;20058;-82
2023/01/10 11:16:01;;;;;;;27.77;5.85;;;;;;;6.08;100.00;101499.28;4901995;29;20056;-82
2023/01/10 11:18:31;;;;;;;27.48;4.85;;;;;;;6.10;100.00;101499.34;4928746;29;20058;-82
2023/01/10 11:21:00;;;;;;;26.40;5.35;;;;;;;6.13;100.00;101496.84;4921004;29;20043;-82
2023/01/10 11:23:46;;;;;;;21.38;4.88;;;;;;;6.13;100.00;101497.72;4905710;29;20074;-82
2023/01/10 11:26:22;;;;;;;22.85;4.80;;;;;;;6.15;100.00;101488.19;4917986;29;20486;-82
2023/01/10 11:29:02;;;;;;;19.20;4.28;;;;;;;6.14;100.00;101483.78;4927221;29;20055;-84
2023/01/10 11:31:31;;;;;;;25.73;4.97;;;;;;;6.14;100.00;101482.88;4871649;29;20060;-82
2023/01/10 11:34:03;;;;;;;24.55;4.93;;;;;;;6.15;100.00;101487.31;4909568;29;20043;-81
2023/01/10 11:36:52;;;;;;;27.23;6.38;;;;;;;6.17;100.00;101491.72;4919092;29;20051;-82
2023/01/10 11:39:19;;;;;;;23.80;5.55;;;;;;;6.17;100.00;101481.25;4917549;29;20048;-82
2023/01/10 11:41:48;;;;;;;22.33;5.50;;;;;;;6.19;100.00;101484.81;4889160;29;20056;-83
2023/01/10 11:44:16;;;;;;;19.88;4.80;;;;;;;6.22;100.00;101479.69;4905213;29;20385;-82
2023/01/10 11:46:45;;;;;;;29.08;5.88;;;;;;;6.24;100.00;101480.63;4893825;29;20063;-81
2023/01/10 11:49:34;;;;;;;23.38;5.40;;;;;;;6.25;100.00;101473.66;4888876;29;20067;-83